sensor_id;sensor_type;location;lat;lon;timestamp;P1;durP1;ratioP1;P2;durP2;ratioP2
26536;SDS011;14204;51.262;5.488;2022-08-03T00:00:37;6.03;;;2.90;;
26536;SDS011;14204;51.262;5.488;2022-08-03T00:03:04;7.95;;;3.08;;
26536;SDS011;14204;51.262;5.488;2022-08-03T00:05:30;4.47;;;2.70;;
26536;SDS011;14204;51.262;5.488;2022-08-03T00:07:57;7.78;;;3.13;;
26536;SDS011;14204;51.262;5.488;2022-08-03T00:10:26;5.65;;;2.83;;
26536;SDS011;14204;51.262;5.488;2022-08-03T00:12:52;5.13;;;2.92;;
26536;SDS011;14204;51.262;5.488;2022-08-03T00:15:18;5.55;;;3.30;;
26536;SDS011;14204;51.262;5.488;2022-08-03T00:17:44;11.55;;;3.88;;
26536;SDS011;14204;51.262;5.488;2022-08-03T00:20:10;5.95;;;3.80;;
26536;SDS011;14204;51.262;5.488;2022-08-03T00:22:36;8.45;;;3.72;;
26536;SDS011;14204;51.262;5.488;2022-08-03T00:25:02;6.70;;;3.60;;
26536;SDS011;14204;51.262;5.488;2022-08-03T00:27:28;5.95;;;3.90;;
26536;SDS011;14204;51.262;5.488;2022-08-03T00:29:53;6.85;;;3.22;;
26536;SDS011;14204;51.262;5.488;2022-08-03T00:32:19;6.00;;;3.60;;
26536;SDS011;14204;51.262;5.488;2022-08-03T00:34:45;7.80;;;3.53;;
26536;SDS011;14204;51.262;5.488;2022-08-03T00:37:10;8.13;;;3.50;;
26536;SDS011;14204;51.262;5.488;2022-08-03T00:39:36;8.30;;;3.30;;
26536;SDS011;14204;51.262;5.488;2022-08-03T00:42:04;7.88;;;3.83;;
26536;SDS011;14204;51.262;5.488;2022-08-03T00:44:30;5.60;;;2.90;;
26536;SDS011;14204;51.262;5.488;2022-08-03T00:47:03;6.47;;;3.20;;
26536;SDS011;14204;51.262;5.488;2022-08-03T00:49:28;7.22;;;3.63;;
26536;SDS011;14204;51.262;5.488;2022-08-03T00:51:54;6.80;;;3.50;;
26536;SDS011;14204;51.262;5.488;2022-08-03T00:54:20;8.75;;;3.28;;
26536;SDS011;14204;51.262;5.488;2022-08-03T00:56:46;7.32;;;3.60;;
26536;SDS011;14204;51.262;5.488;2022-08-03T00:59:14;10.45;;;3.65;;
26536;SDS011;14204;51.262;5.488;2022-08-03T01:01:40;7.75;;;4.20;;
26536;SDS011;14204;51.262;5.488;2022-08-03T01:04:06;8.60;;;3.80;;
26536;SDS011;14204;51.262;5.488;2022-08-03T01:07:16;8.43;;;4.25;;
26536;SDS011;14204;51.262;5.488;2022-08-03T01:12:56;8.93;;;3.75;;
26536;SDS011;14204;51.262;5.488;2022-08-03T01:18:50;6.35;;;3.42;;
26536;SDS011;14204;51.262;5.488;2022-08-03T01:21:26;6.38;;;4.03;;
26536;SDS011;14204;51.262;5.488;2022-08-03T01:24:04;5.78;;;4.10;;
26536;SDS011;14204;51.262;5.488;2022-08-03T01:32:40;10.48;;;4.50;;
26536;SDS011;14204;51.262;5.488;2022-08-03T01:35:32;6.40;;;3.90;;
26536;SDS011;14204;51.262;5.488;2022-08-03T01:38:02;7.72;;;4.60;;
26536;SDS011;14204;51.262;5.488;2022-08-03T01:40:31;9.05;;;4.28;;
26536;SDS011;14204;51.262;5.488;2022-08-03T01:43:01;6.72;;;3.80;;
26536;SDS011;14204;51.262;5.488;2022-08-03T01:45:28;4.80;;;3.83;;
26536;SDS011;14204;51.262;5.488;2022-08-03T01:47:55;5.70;;;4.03;;
26536;SDS011;14204;51.262;5.488;2022-08-03T01:50:22;5.60;;;3.28;;
26536;SDS011;14204;51.262;5.488;2022-08-03T01:52:51;4.80;;;3.30;;
26536;SDS011;14204;51.262;5.488;2022-08-03T01:55:18;5.60;;;3.42;;
26536;SDS011;14204;51.262;5.488;2022-08-03T01:57:47;10.13;;;4.43;;
26536;SDS011;14204;51.262;5.488;2022-08-03T02:00:15;10.40;;;4.47;;
26536;SDS011;14204;51.262;5.488;2022-08-03T02:02:41;9.88;;;3.92;;
26536;SDS011;14204;51.262;5.488;2022-08-03T02:05:08;7.13;;;3.83;;
26536;SDS011;14204;51.262;5.488;2022-08-03T02:07:36;8.40;;;4.38;;
26536;SDS011;14204;51.262;5.488;2022-08-03T02:10:04;6.22;;;3.65;;
26536;SDS011;14204;51.262;5.488;2022-08-03T02:12:31;8.38;;;3.88;;
26536;SDS011;14204;51.262;5.488;2022-08-03T02:14:59;8.23;;;3.85;;
26536;SDS011;14204;51.262;5.488;2022-08-03T02:17:26;7.90;;;4.30;;
26536;SDS011;14204;51.262;5.488;2022-08-03T02:19:53;9.98;;;4.72;;
26536;SDS011;14204;51.262;5.488;2022-08-03T02:22:22;9.13;;;4.43;;
26536;SDS011;14204;51.262;5.488;2022-08-03T02:24:49;7.35;;;4.65;;
26536;SDS011;14204;51.262;5.488;2022-08-03T02:27:17;9.77;;;4.45;;
26536;SDS011;14204;51.262;5.488;2022-08-03T02:29:48;9.77;;;4.30;;
26536;SDS011;14204;51.262;5.488;2022-08-03T02:32:19;6.65;;;4.35;;
26536;SDS011;14204;51.262;5.488;2022-08-03T02:34:54;6.93;;;4.53;;
26536;SDS011;14204;51.262;5.488;2022-08-03T02:37:25;9.90;;;4.57;;
26536;SDS011;14204;51.262;5.488;2022-08-03T02:39:57;12.60;;;5.00;;
26536;SDS011;14204;51.262;5.488;2022-08-03T02:42:28;7.95;;;4.40;;
26536;SDS011;14204;51.262;5.488;2022-08-03T02:44:56;9.65;;;5.18;;
26536;SDS011;14204;51.262;5.488;2022-08-03T02:47:25;9.82;;;4.95;;
26536;SDS011;14204;51.262;5.488;2022-08-03T02:49:53;7.57;;;4.00;;
26536;SDS011;14204;51.262;5.488;2022-08-03T02:52:22;11.02;;;4.53;;
26536;SDS011;14204;51.262;5.488;2022-08-03T02:54:51;7.95;;;4.30;;
26536;SDS011;14204;51.262;5.488;2022-08-03T02:57:20;5.50;;;3.80;;
26536;SDS011;14204;51.262;5.488;2022-08-03T02:59:47;12.65;;;4.22;;
26536;SDS011;14204;51.262;5.488;2022-08-03T03:02:14;14.25;;;4.38;;
26536;SDS011;14204;51.262;5.488;2022-08-03T03:04:41;8.55;;;4.30;;
26536;SDS011;14204;51.262;5.488;2022-08-03T03:07:10;6.57;;;3.67;;
26536;SDS011;14204;51.262;5.488;2022-08-03T03:09:40;7.40;;;3.75;;
26536;SDS011;14204;51.262;5.488;2022-08-03T03:12:07;10.38;;;4.28;;
26536;SDS011;14204;51.262;5.488;2022-08-03T03:14:35;7.80;;;4.10;;
26536;SDS011;14204;51.262;5.488;2022-08-03T03:17:01;5.65;;;3.45;;
26536;SDS011;14204;51.262;5.488;2022-08-03T03:19:27;5.75;;;3.70;;
26536;SDS011;14204;51.262;5.488;2022-08-03T03:21:56;10.75;;;3.38;;
26536;SDS011;14204;51.262;5.488;2022-08-03T03:24:25;5.70;;;3.40;;
26536;SDS011;14204;51.262;5.488;2022-08-03T03:26:52;7.85;;;3.30;;
26536;SDS011;14204;51.262;5.488;2022-08-03T03:29:19;8.07;;;3.55;;
26536;SDS011;14204;51.262;5.488;2022-08-03T03:31:45;5.70;;;3.25;;
26536;SDS011;14204;51.262;5.488;2022-08-03T03:34:12;8.38;;;4.38;;
26536;SDS011;14204;51.262;5.488;2022-08-03T03:36:38;7.07;;;3.63;;
26536;SDS011;14204;51.262;5.488;2022-08-03T03:39:04;9.85;;;3.75;;
26536;SDS011;14204;51.262;5.488;2022-08-03T03:41:30;7.68;;;3.35;;
26536;SDS011;14204;51.262;5.488;2022-08-03T03:43:56;8.80;;;4.03;;
26536;SDS011;14204;51.262;5.488;2022-08-03T03:46:22;7.38;;;3.80;;
26536;SDS011;14204;51.262;5.488;2022-08-03T03:48:48;8.32;;;4.53;;
26536;SDS011;14204;51.262;5.488;2022-08-03T03:51:14;9.18;;;4.57;;
26536;SDS011;14204;51.262;5.488;2022-08-03T03:53:48;8.88;;;4.18;;
26536;SDS011;14204;51.262;5.488;2022-08-03T03:56:21;8.60;;;5.00;;
26536;SDS011;14204;51.262;5.488;2022-08-03T03:58:47;10.57;;;4.72;;
26536;SDS011;14204;51.262;5.488;2022-08-03T04:01:14;10.10;;;4.07;;
26536;SDS011;14204;51.262;5.488;2022-08-03T04:03:40;7.72;;;3.90;;
26536;SDS011;14204;51.262;5.488;2022-08-03T04:06:05;7.57;;;3.35;;
26536;SDS011;14204;51.262;5.488;2022-08-03T04:08:50;5.47;;;3.20;;
26536;SDS011;14204;51.262;5.488;2022-08-03T04:11:35;5.90;;;3.80;;
26536;SDS011;14204;51.262;5.488;2022-08-03T04:14:15;4.68;;;3.75;;
26536;SDS011;14204;51.262;5.488;2022-08-03T04:16:50;8.07;;;3.70;;
26536;SDS011;14204;51.262;5.488;2022-08-03T04:21:59;7.60;;;3.80;;
26536;SDS011;14204;51.262;5.488;2022-08-03T04:24:33;8.93;;;3.97;;
26536;SDS011;14204;51.262;5.488;2022-08-03T04:27:03;9.07;;;4.60;;
26536;SDS011;14204;51.262;5.488;2022-08-03T04:29:34;8.82;;;4.28;;
26536;SDS011;14204;51.262;5.488;2022-08-03T04:32:01;8.77;;;4.15;;
26536;SDS011;14204;51.262;5.488;2022-08-03T04:34:31;6.15;;;3.83;;
26536;SDS011;14204;51.262;5.488;2022-08-03T04:36:57;6.45;;;3.95;;
26536;SDS011;14204;51.262;5.488;2022-08-03T04:39:25;7.63;;;4.22;;
26536;SDS011;14204;51.262;5.488;2022-08-03T04:41:53;9.10;;;3.97;;
26536;SDS011;14204;51.262;5.488;2022-08-03T04:44:22;8.73;;;4.35;;
26536;SDS011;14204;51.262;5.488;2022-08-03T04:46:49;7.53;;;4.05;;
26536;SDS011;14204;51.262;5.488;2022-08-03T04:49:17;8.07;;;4.20;;
26536;SDS011;14204;51.262;5.488;2022-08-03T04:51:44;6.90;;;4.07;;
26536;SDS011;14204;51.262;5.488;2022-08-03T04:54:14;7.88;;;3.90;;
26536;SDS011;14204;51.262;5.488;2022-08-03T04:56:40;5.32;;;3.63;;
26536;SDS011;14204;51.262;5.488;2022-08-03T04:59:07;5.07;;;3.65;;
26536;SDS011;14204;51.262;5.488;2022-08-03T05:01:34;9.38;;;4.45;;
26536;SDS011;14204;51.262;5.488;2022-08-03T05:04:00;7.30;;;4.70;;
26536;SDS011;14204;51.262;5.488;2022-08-03T05:06:26;8.13;;;4.10;;
26536;SDS011;14204;51.262;5.488;2022-08-03T05:08:52;10.95;;;5.05;;
26536;SDS011;14204;51.262;5.488;2022-08-03T05:11:17;8.07;;;4.80;;
26536;SDS011;14204;51.262;5.488;2022-08-03T05:13:43;8.88;;;5.68;;
26536;SDS011;14204;51.262;5.488;2022-08-03T05:16:09;6.85;;;4.88;;
26536;SDS011;14204;51.262;5.488;2022-08-03T05:18:36;10.32;;;5.60;;
26536;SDS011;14204;51.262;5.488;2022-08-03T05:21:02;7.55;;;4.90;;
26536;SDS011;14204;51.262;5.488;2022-08-03T05:23:29;5.78;;;4.30;;
26536;SDS011;14204;51.262;5.488;2022-08-03T05:25:54;9.60;;;4.60;;
26536;SDS011;14204;51.262;5.488;2022-08-03T05:28:20;10.00;;;4.45;;
26536;SDS011;14204;51.262;5.488;2022-08-03T05:30:46;6.25;;;3.90;;
26536;SDS011;14204;51.262;5.488;2022-08-03T05:33:12;10.30;;;4.35;;
26536;SDS011;14204;51.262;5.488;2022-08-03T05:35:38;9.40;;;4.55;;
26536;SDS011;14204;51.262;5.488;2022-08-03T05:38:04;12.10;;;4.30;;
26536;SDS011;14204;51.262;5.488;2022-08-03T05:40:31;9.40;;;3.97;;
26536;SDS011;14204;51.262;5.488;2022-08-03T05:42:57;11.13;;;4.43;;
26536;SDS011;14204;51.262;5.488;2022-08-03T05:45:23;9.70;;;4.50;;
26536;SDS011;14204;51.262;5.488;2022-08-03T05:47:49;8.10;;;3.65;;
26536;SDS011;14204;51.262;5.488;2022-08-03T05:50:15;6.45;;;3.65;;
26536;SDS011;14204;51.262;5.488;2022-08-03T05:52:42;5.50;;;3.33;;
26536;SDS011;14204;51.262;5.488;2022-08-03T05:55:09;6.85;;;3.28;;
26536;SDS011;14204;51.262;5.488;2022-08-03T05:57:35;6.60;;;3.70;;
26536;SDS011;14204;51.262;5.488;2022-08-03T06:00:03;7.53;;;3.25;;
26536;SDS011;14204;51.262;5.488;2022-08-03T06:02:30;7.22;;;3.08;;
26536;SDS011;14204;51.262;5.488;2022-08-03T06:04:56;5.05;;;3.20;;
26536;SDS011;14204;51.262;5.488;2022-08-03T06:07:21;6.45;;;3.55;;
26536;SDS011;14204;51.262;5.488;2022-08-03T06:09:47;6.60;;;3.35;;
26536;SDS011;14204;51.262;5.488;2022-08-03T06:12:13;4.18;;;3.33;;
26536;SDS011;14204;51.262;5.488;2022-08-03T06:14:40;5.40;;;3.28;;
26536;SDS011;14204;51.262;5.488;2022-08-03T06:17:05;6.32;;;3.60;;
26536;SDS011;14204;51.262;5.488;2022-08-03T06:19:31;6.70;;;2.95;;
26536;SDS011;14204;51.262;5.488;2022-08-03T06:21:57;5.93;;;2.70;;
26536;SDS011;14204;51.262;5.488;2022-08-03T06:24:22;9.27;;;3.17;;
26536;SDS011;14204;51.262;5.488;2022-08-03T06:26:48;5.95;;;2.70;;
26536;SDS011;14204;51.262;5.488;2022-08-03T06:29:14;8.38;;;2.83;;
26536;SDS011;14204;51.262;5.488;2022-08-03T06:31:39;7.82;;;2.42;;
26536;SDS011;14204;51.262;5.488;2022-08-03T06:34:05;10.43;;;2.50;;
26536;SDS011;14204;51.262;5.488;2022-08-03T06:36:31;6.40;;;2.30;;
26536;SDS011;14204;51.262;5.488;2022-08-03T06:38:57;5.93;;;2.53;;
26536;SDS011;14204;51.262;5.488;2022-08-03T06:41:23;6.75;;;2.15;;
26536;SDS011;14204;51.262;5.488;2022-08-03T06:43:50;6.07;;;2.53;;
26536;SDS011;14204;51.262;5.488;2022-08-03T06:46:16;9.30;;;2.20;;
26536;SDS011;14204;51.262;5.488;2022-08-03T06:48:41;8.95;;;2.42;;
26536;SDS011;14204;51.262;5.488;2022-08-03T06:51:07;8.30;;;3.08;;
26536;SDS011;14204;51.262;5.488;2022-08-03T06:53:33;4.50;;;1.95;;
26536;SDS011;14204;51.262;5.488;2022-08-03T06:55:59;4.82;;;1.98;;
26536;SDS011;14204;51.262;5.488;2022-08-03T06:58:24;7.43;;;2.03;;
26536;SDS011;14204;51.262;5.488;2022-08-03T07:00:50;10.88;;;2.38;;
26536;SDS011;14204;51.262;5.488;2022-08-03T07:03:16;10.10;;;2.20;;
26536;SDS011;14204;51.262;5.488;2022-08-03T07:05:42;6.13;;;2.13;;
26536;SDS011;14204;51.262;5.488;2022-08-03T07:08:10;5.47;;;2.05;;
26536;SDS011;14204;51.262;5.488;2022-08-03T07:10:36;4.30;;;1.85;;
26536;SDS011;14204;51.262;5.488;2022-08-03T07:13:02;5.93;;;2.03;;
26536;SDS011;14204;51.262;5.488;2022-08-03T07:15:28;8.82;;;2.13;;
26536;SDS011;14204;51.262;5.488;2022-08-03T07:17:54;5.55;;;2.03;;
26536;SDS011;14204;51.262;5.488;2022-08-03T07:20:21;6.95;;;1.90;;
26536;SDS011;14204;51.262;5.488;2022-08-03T07:22:46;6.05;;;1.95;;
26536;SDS011;14204;51.262;5.488;2022-08-03T07:25:13;7.85;;;1.80;;
26536;SDS011;14204;51.262;5.488;2022-08-03T07:27:42;7.50;;;1.77;;
26536;SDS011;14204;51.262;5.488;2022-08-03T07:30:11;5.47;;;1.80;;
26536;SDS011;14204;51.262;5.488;2022-08-03T07:32:38;3.78;;;1.27;;
26536;SDS011;14204;51.262;5.488;2022-08-03T07:35:04;6.20;;;1.70;;
26536;SDS011;14204;51.262;5.488;2022-08-03T07:37:31;3.65;;;1.58;;
26536;SDS011;14204;51.262;5.488;2022-08-03T07:39:58;6.20;;;1.38;;
26536;SDS011;14204;51.262;5.488;2022-08-03T07:42:25;5.55;;;1.80;;
26536;SDS011;14204;51.262;5.488;2022-08-03T07:44:52;5.05;;;1.55;;
26536;SDS011;14204;51.262;5.488;2022-08-03T07:47:18;5.45;;;1.20;;
26536;SDS011;14204;51.262;5.488;2022-08-03T07:49:46;6.97;;;2.33;;
26536;SDS011;14204;51.262;5.488;2022-08-03T07:52:12;3.63;;;1.60;;
26536;SDS011;14204;51.262;5.488;2022-08-03T07:54:57;4.53;;;1.58;;
26536;SDS011;14204;51.262;5.488;2022-08-03T07:57:22;7.00;;;1.77;;
26536;SDS011;14204;51.262;5.488;2022-08-03T07:59:48;8.30;;;1.65;;
26536;SDS011;14204;51.262;5.488;2022-08-03T08:02:14;8.25;;;2.17;;
26536;SDS011;14204;51.262;5.488;2022-08-03T08:04:39;8.93;;;2.17;;
26536;SDS011;14204;51.262;5.488;2022-08-03T08:07:05;5.93;;;1.95;;
26536;SDS011;14204;51.262;5.488;2022-08-03T08:09:31;5.43;;;2.20;;
26536;SDS011;14204;51.262;5.488;2022-08-03T08:11:58;6.80;;;2.45;;
26536;SDS011;14204;51.262;5.488;2022-08-03T08:14:23;9.52;;;2.47;;
26536;SDS011;14204;51.262;5.488;2022-08-03T08:16:49;9.23;;;2.13;;
26536;SDS011;14204;51.262;5.488;2022-08-03T08:19:15;8.48;;;2.20;;
26536;SDS011;14204;51.262;5.488;2022-08-03T08:21:41;6.93;;;2.58;;
26536;SDS011;14204;51.262;5.488;2022-08-03T08:24:07;9.05;;;2.10;;
26536;SDS011;14204;51.262;5.488;2022-08-03T08:26:33;7.50;;;1.70;;
26536;SDS011;14204;51.262;5.488;2022-08-03T08:28:59;5.60;;;1.80;;
26536;SDS011;14204;51.262;5.488;2022-08-03T08:31:25;5.97;;;2.00;;
26536;SDS011;14204;51.262;5.488;2022-08-03T08:33:50;6.40;;;1.98;;
26536;SDS011;14204;51.262;5.488;2022-08-03T08:36:16;8.70;;;1.95;;
26536;SDS011;14204;51.262;5.488;2022-08-03T08:38:42;9.38;;;2.42;;
26536;SDS011;14204;51.262;5.488;2022-08-03T08:41:12;8.38;;;1.70;;
26536;SDS011;14204;51.262;5.488;2022-08-03T08:43:39;8.77;;;2.15;;
26536;SDS011;14204;51.262;5.488;2022-08-03T08:46:06;7.70;;;2.33;;
26536;SDS011;14204;51.262;5.488;2022-08-03T08:48:37;9.05;;;1.63;;
26536;SDS011;14204;51.262;5.488;2022-08-03T08:51:05;8.63;;;1.80;;
26536;SDS011;14204;51.262;5.488;2022-08-03T08:53:34;6.32;;;2.42;;
26536;SDS011;14204;51.262;5.488;2022-08-03T08:56:02;10.35;;;2.10;;
26536;SDS011;14204;51.262;5.488;2022-08-03T08:58:29;8.80;;;1.75;;
26536;SDS011;14204;51.262;5.488;2022-08-03T09:01:00;9.05;;;2.05;;
26536;SDS011;14204;51.262;5.488;2022-08-03T09:03:27;8.02;;;1.65;;
26536;SDS011;14204;51.262;5.488;2022-08-03T09:05:52;8.93;;;1.60;;
26536;SDS011;14204;51.262;5.488;2022-08-03T09:08:19;7.75;;;1.98;;
26536;SDS011;14204;51.262;5.488;2022-08-03T09:10:47;9.50;;;1.60;;
26536;SDS011;14204;51.262;5.488;2022-08-03T09:13:12;5.97;;;1.60;;
26536;SDS011;14204;51.262;5.488;2022-08-03T09:15:38;7.03;;;1.77;;
26536;SDS011;14204;51.262;5.488;2022-08-03T09:18:06;8.00;;;1.55;;
26536;SDS011;14204;51.262;5.488;2022-08-03T09:20:33;4.05;;;1.23;;
26536;SDS011;14204;51.262;5.488;2022-08-03T09:23:01;7.50;;;1.55;;
26536;SDS011;14204;51.262;5.488;2022-08-03T09:27:54;4.50;;;1.38;;
26536;SDS011;14204;51.262;5.488;2022-08-03T09:30:27;5.65;;;1.90;;
26536;SDS011;14204;51.262;5.488;2022-08-03T09:32:58;7.18;;;1.60;;
26536;SDS011;14204;51.262;5.488;2022-08-03T09:35:41;8.68;;;1.60;;
26536;SDS011;14204;51.262;5.488;2022-08-03T09:38:13;9.15;;;1.60;;
26536;SDS011;14204;51.262;5.488;2022-08-03T09:40:51;7.53;;;1.60;;
26536;SDS011;14204;51.262;5.488;2022-08-03T09:43:17;3.88;;;1.35;;
26536;SDS011;14204;51.262;5.488;2022-08-03T09:45:43;4.25;;;1.20;;
26536;SDS011;14204;51.262;5.488;2022-08-03T09:48:22;4.53;;;1.35;;
26536;SDS011;14204;51.262;5.488;2022-08-03T09:50:50;5.45;;;1.60;;
26536;SDS011;14204;51.262;5.488;2022-08-03T09:53:17;6.80;;;1.88;;
26536;SDS011;14204;51.262;5.488;2022-08-03T09:56:02;3.92;;;1.38;;
26536;SDS011;14204;51.262;5.488;2022-08-03T09:58:28;5.00;;;1.48;;
26536;SDS011;14204;51.262;5.488;2022-08-03T10:03:25;6.18;;;1.63;;
26536;SDS011;14204;51.262;5.488;2022-08-03T10:05:53;5.45;;;1.77;;
26536;SDS011;14204;51.262;5.488;2022-08-03T10:08:20;7.70;;;1.48;;
26536;SDS011;14204;51.262;5.488;2022-08-03T10:10:47;3.85;;;1.42;;
26536;SDS011;14204;51.262;5.488;2022-08-03T10:13:17;6.57;;;1.58;;
26536;SDS011;14204;51.262;5.488;2022-08-03T10:15:44;4.95;;;1.60;;
26536;SDS011;14204;51.262;5.488;2022-08-03T10:18:13;7.88;;;1.58;;
26536;SDS011;14204;51.262;5.488;2022-08-03T10:20:43;4.13;;;1.60;;
26536;SDS011;14204;51.262;5.488;2022-08-03T10:23:13;8.40;;;1.30;;
26536;SDS011;14204;51.262;5.488;2022-08-03T10:25:41;7.95;;;1.65;;
26536;SDS011;14204;51.262;5.488;2022-08-03T10:28:11;3.15;;;1.38;;
26536;SDS011;14204;51.262;5.488;2022-08-03T10:30:40;7.30;;;1.38;;
26536;SDS011;14204;51.262;5.488;2022-08-03T10:33:31;9.00;;;1.42;;
26536;SDS011;14204;51.262;5.488;2022-08-03T10:35:58;6.90;;;1.30;;
26536;SDS011;14204;51.262;5.488;2022-08-03T10:38:28;9.20;;;1.40;;
26536;SDS011;14204;51.262;5.488;2022-08-03T10:40:58;4.13;;;1.25;;
26536;SDS011;14204;51.262;5.488;2022-08-03T10:43:26;6.05;;;1.58;;
26536;SDS011;14204;51.262;5.488;2022-08-03T10:45:58;5.65;;;1.27;;
26536;SDS011;14204;51.262;5.488;2022-08-03T10:48:26;6.43;;;1.55;;
26536;SDS011;14204;51.262;5.488;2022-08-03T10:50:52;4.20;;;1.33;;
26536;SDS011;14204;51.262;5.488;2022-08-03T10:53:37;4.32;;;1.27;;
26536;SDS011;14204;51.262;5.488;2022-08-03T10:56:06;5.82;;;1.40;;
26536;SDS011;14204;51.262;5.488;2022-08-03T10:59:56;5.72;;;1.20;;
26536;SDS011;14204;51.262;5.488;2022-08-03T11:02:11;5.25;;;1.05;;
26536;SDS011;14204;51.262;5.488;2022-08-03T11:04:38;6.03;;;1.40;;
26536;SDS011;14204;51.262;5.488;2022-08-03T11:07:23;4.47;;;1.60;;
26536;SDS011;14204;51.262;5.488;2022-08-03T11:09:51;5.32;;;1.83;;
26536;SDS011;14204;51.262;5.488;2022-08-03T11:12:22;4.22;;;1.27;;
26536;SDS011;14204;51.262;5.488;2022-08-03T11:14:53;3.42;;;1.30;;
26536;SDS011;14204;51.262;5.488;2022-08-03T11:17:20;5.50;;;1.60;;
26536;SDS011;14204;51.262;5.488;2022-08-03T11:19:47;4.28;;;1.38;;
26536;SDS011;14204;51.262;5.488;2022-08-03T11:22:14;6.97;;;1.65;;
26536;SDS011;14204;51.262;5.488;2022-08-03T11:29:52;7.03;;;1.27;;
26536;SDS011;14204;51.262;5.488;2022-08-03T11:35:12;6.72;;;1.65;;
26536;SDS011;14204;51.262;5.488;2022-08-03T11:40:37;9.45;;;1.45;;
26536;SDS011;14204;51.262;5.488;2022-08-03T11:43:05;5.03;;;1.50;;
26536;SDS011;14204;51.262;5.488;2022-08-03T11:48:35;4.68;;;1.58;;
26536;SDS011;14204;51.262;5.488;2022-08-03T11:51:03;5.50;;;1.67;;
26536;SDS011;14204;51.262;5.488;2022-08-03T11:53:30;5.78;;;1.80;;
26536;SDS011;14204;51.262;5.488;2022-08-03T11:56:00;5.32;;;1.70;;
26536;SDS011;14204;51.262;5.488;2022-08-03T11:58:27;7.07;;;1.50;;
26536;SDS011;14204;51.262;5.488;2022-08-03T12:01:02;3.95;;;1.35;;
26536;SDS011;14204;51.262;5.488;2022-08-03T12:03:31;4.50;;;1.95;;
26536;SDS011;14204;51.262;5.488;2022-08-03T12:05:58;7.20;;;2.10;;
26536;SDS011;14204;51.262;5.488;2022-08-03T12:10:52;9.00;;;1.75;;
26536;SDS011;14204;51.262;5.488;2022-08-03T12:13:19;7.32;;;1.95;;
26536;SDS011;14204;51.262;5.488;2022-08-03T12:15:50;6.07;;;1.58;;
26536;SDS011;14204;51.262;5.488;2022-08-03T12:18:17;2.92;;;1.55;;
26536;SDS011;14204;51.262;5.488;2022-08-03T12:20:44;4.88;;;1.40;;
26536;SDS011;14204;51.262;5.488;2022-08-03T12:23:11;7.38;;;1.88;;
26536;SDS011;14204;51.262;5.488;2022-08-03T12:25:38;5.57;;;1.67;;
26536;SDS011;14204;51.262;5.488;2022-08-03T12:30:36;3.55;;;1.42;;
26536;SDS011;14204;51.262;5.488;2022-08-03T12:33:18;2.80;;;1.63;;
26536;SDS011;14204;51.262;5.488;2022-08-03T12:35:48;4.35;;;1.50;;
26536;SDS011;14204;51.262;5.488;2022-08-03T12:38:18;9.95;;;1.80;;
26536;SDS011;14204;51.262;5.488;2022-08-03T12:40:54;5.30;;;1.25;;
26536;SDS011;14204;51.262;5.488;2022-08-03T12:43:24;3.08;;;1.48;;
26536;SDS011;14204;51.262;5.488;2022-08-03T12:45:50;6.20;;;1.58;;
26536;SDS011;14204;51.262;5.488;2022-08-03T12:48:15;5.32;;;1.30;;
26536;SDS011;14204;51.262;5.488;2022-08-03T12:50:41;3.83;;;1.80;;
26536;SDS011;14204;51.262;5.488;2022-08-03T12:53:07;7.05;;;1.58;;
26536;SDS011;14204;51.262;5.488;2022-08-03T12:55:34;6.20;;;1.90;;
26536;SDS011;14204;51.262;5.488;2022-08-03T12:58:02;3.65;;;1.50;;
26536;SDS011;14204;51.262;5.488;2022-08-03T13:00:28;4.13;;;1.45;;
26536;SDS011;14204;51.262;5.488;2022-08-03T13:03:01;4.55;;;1.50;;
26536;SDS011;14204;51.262;5.488;2022-08-03T13:05:30;4.63;;;1.38;;
26536;SDS011;14204;51.262;5.488;2022-08-03T13:07:56;5.50;;;1.60;;
26536;SDS011;14204;51.262;5.488;2022-08-03T13:10:31;3.90;;;1.35;;
26536;SDS011;14204;51.262;5.488;2022-08-03T13:12:59;5.05;;;1.75;;
26536;SDS011;14204;51.262;5.488;2022-08-03T13:15:27;5.07;;;1.50;;
26536;SDS011;14204;51.262;5.488;2022-08-03T13:17:54;5.15;;;2.05;;
26536;SDS011;14204;51.262;5.488;2022-08-03T13:20:21;4.65;;;1.20;;
26536;SDS011;14204;51.262;5.488;2022-08-03T13:22:48;2.08;;;1.15;;
26536;SDS011;14204;51.262;5.488;2022-08-03T13:25:14;2.35;;;1.25;;
26536;SDS011;14204;51.262;5.488;2022-08-03T13:27:39;6.82;;;1.90;;
26536;SDS011;14204;51.262;5.488;2022-08-03T13:30:06;6.03;;;1.40;;
26536;SDS011;14204;51.262;5.488;2022-08-03T13:32:32;4.82;;;1.42;;
26536;SDS011;14204;51.262;5.488;2022-08-03T13:34:58;5.88;;;1.48;;
26536;SDS011;14204;51.262;5.488;2022-08-03T13:37:26;5.50;;;1.70;;
26536;SDS011;14204;51.262;5.488;2022-08-03T13:39:52;3.38;;;1.45;;
26536;SDS011;14204;51.262;5.488;2022-08-03T13:42:18;3.42;;;1.30;;
26536;SDS011;14204;51.262;5.488;2022-08-03T13:44:43;4.72;;;1.20;;
26536;SDS011;14204;51.262;5.488;2022-08-03T13:47:09;5.30;;;1.30;;
26536;SDS011;14204;51.262;5.488;2022-08-03T13:49:35;5.65;;;1.42;;
26536;SDS011;14204;51.262;5.488;2022-08-03T13:52:00;6.53;;;1.80;;
26536;SDS011;14204;51.262;5.488;2022-08-03T13:54:26;5.07;;;1.80;;
26536;SDS011;14204;51.262;5.488;2022-08-03T13:56:52;6.78;;;1.42;;
26536;SDS011;14204;51.262;5.488;2022-08-03T13:59:18;4.03;;;1.67;;
26536;SDS011;14204;51.262;5.488;2022-08-03T14:01:45;4.97;;;1.60;;
26536;SDS011;14204;51.262;5.488;2022-08-03T14:04:11;6.65;;;1.60;;
26536;SDS011;14204;51.262;5.488;2022-08-03T14:06:37;3.33;;;1.30;;
26536;SDS011;14204;51.262;5.488;2022-08-03T14:09:03;4.63;;;1.70;;
26536;SDS011;14204;51.262;5.488;2022-08-03T14:11:29;4.00;;;1.42;;
26536;SDS011;14204;51.262;5.488;2022-08-03T14:13:55;3.10;;;1.30;;
26536;SDS011;14204;51.262;5.488;2022-08-03T14:16:21;10.05;;;1.45;;
26536;SDS011;14204;51.262;5.488;2022-08-03T14:18:46;7.32;;;1.77;;
26536;SDS011;14204;51.262;5.488;2022-08-03T14:21:12;3.45;;;1.58;;
26536;SDS011;14204;51.262;5.488;2022-08-03T14:23:38;6.65;;;1.50;;
26536;SDS011;14204;51.262;5.488;2022-08-03T14:26:04;5.97;;;1.60;;
26536;SDS011;14204;51.262;5.488;2022-08-03T14:28:30;5.32;;;1.80;;
26536;SDS011;14204;51.262;5.488;2022-08-03T14:30:56;2.25;;;1.25;;
26536;SDS011;14204;51.262;5.488;2022-08-03T14:33:22;3.65;;;1.48;;
26536;SDS011;14204;51.262;5.488;2022-08-03T14:35:48;5.47;;;1.70;;
26536;SDS011;14204;51.262;5.488;2022-08-03T14:38:15;3.35;;;1.80;;
26536;SDS011;14204;51.262;5.488;2022-08-03T14:40:42;3.38;;;1.67;;
26536;SDS011;14204;51.262;5.488;2022-08-03T14:43:08;6.13;;;1.83;;
26536;SDS011;14204;51.262;5.488;2022-08-03T14:45:33;3.85;;;1.75;;
26536;SDS011;14204;51.262;5.488;2022-08-03T14:47:59;3.47;;;1.70;;
26536;SDS011;14204;51.262;5.488;2022-08-03T14:50:25;2.97;;;1.25;;
26536;SDS011;14204;51.262;5.488;2022-08-03T14:52:53;5.75;;;1.70;;
26536;SDS011;14204;51.262;5.488;2022-08-03T14:55:18;2.83;;;1.27;;
26536;SDS011;14204;51.262;5.488;2022-08-03T14:57:44;5.95;;;1.42;;
26536;SDS011;14204;51.262;5.488;2022-08-03T15:00:10;9.38;;;1.45;;
26536;SDS011;14204;51.262;5.488;2022-08-03T15:02:36;5.97;;;1.90;;
26536;SDS011;14204;51.262;5.488;2022-08-03T15:05:02;5.38;;;1.50;;
26536;SDS011;14204;51.262;5.488;2022-08-03T15:07:28;4.97;;;1.70;;
26536;SDS011;14204;51.262;5.488;2022-08-03T15:09:53;2.80;;;1.40;;
26536;SDS011;14204;51.262;5.488;2022-08-03T15:12:19;4.70;;;1.50;;
26536;SDS011;14204;51.262;5.488;2022-08-03T15:14:45;6.85;;;1.42;;
26536;SDS011;14204;51.262;5.488;2022-08-03T15:17:11;2.75;;;1.10;;
26536;SDS011;14204;51.262;5.488;2022-08-03T15:19:36;5.50;;;1.70;;
26536;SDS011;14204;51.262;5.488;2022-08-03T15:22:03;5.25;;;1.73;;
26536;SDS011;14204;51.262;5.488;2022-08-03T15:24:29;7.60;;;1.63;;
26536;SDS011;14204;51.262;5.488;2022-08-03T15:26:54;4.50;;;1.85;;
26536;SDS011;14204;51.262;5.488;2022-08-03T15:29:20;4.63;;;1.38;;
26536;SDS011;14204;51.262;5.488;2022-08-03T15:31:46;3.90;;;1.30;;